Blandford, Massachusetts
Current Conditions -  °F | °C
As of 10:53 PM on Friday 24 Oct 2014 (Local Time) from KBAF Reporting Station
Clear Clear  
Wind Chill: 51°   Ceiling: Unl
Heat Index: 51°   Visibility: 10mi
Dew Point: 42°   Wind: 12mph
Humidity: 71%   Direction: 350°N
Pressure: 29.78"   Gusts: NA
Location:  42.18°N, 72.93°W
Report Text: KBAF 250253Z AUTO 35010KT 10SM CLR 11/06 A2978 RMK AO2 SLP087 T01060056 53001
Loading
Personal Weather Stations






























Interactive Weather Map New forecast layout! Learn more

10-Day Weather Forecast

Advertisements
Track Severe Weather on mobile